Time;durP1;ratioP1;P1;durP2;ratioP2;P2;SDS_P1;SDS_P2;PMS_P1;PMS_P2;Temp;Humidity;BMP_temperature;BMP_pressure;BME280_temperature;BME280_humidity;BME280_pressure;Samples;Min_cycle;Max_cycle;Signal;HPM_P1;HPM_P2
2024/02/13 00:00:58;;;;;;;3.58;2.30;;;6.00;94.30;;;;;;5051715;28;20033;-69
2024/02/13 00:03:24;;;;;;;4.50;2.30;;;6.10;94.40;;;;;;5049901;28;20052;-68
2024/02/13 00:05:51;;;;;;;4.20;2.65;;;6.00;94.40;;;;;;5048475;28;20533;-68
2024/02/13 00:08:17;;;;;;;2.97;2.10;;;6.00;94.40;;;;;;5050635;28;20488;-69
2024/02/13 00:10:43;;;;;;;6.78;3.53;;;6.10;94.50;;;;;;5051016;28;20096;-68
2024/02/13 00:13:08;;;;;;;4.82;2.78;;;6.00;94.50;;;;;;5051783;28;20720;-66
2024/02/13 00:15:37;;;;;;;4.53;2.70;;;6.10;94.50;;;;;;5050743;28;20048;-68
2024/02/13 00:18:03;;;;;;;5.03;3.25;;;6.00;94.50;;;;;;5051058;28;20035;-68
2024/02/13 00:20:29;;;;;;;10.95;4.50;;;6.00;94.50;;;;;;5049803;28;20045;-68
2024/02/13 00:22:55;;;;;;;5.50;3.15;;;6.00;94.80;;;;;;5050969;28;20085;-68
2024/02/13 00:25:21;;;;;;;6.82;3.20;;;6.00;94.60;;;;;;5048101;28;20465;-68
2024/02/13 00:27:46;;;;;;;6.95;3.50;;;6.00;94.60;;;;;;5050492;28;20028;-68
2024/02/13 00:30:14;;;;;;;14.43;5.10;;;6.00;94.70;;;;;;5049367;28;20017;-69
2024/02/13 00:32:39;;;;;;;29.00;9.85;;;6.00;94.70;;;;;;5049247;28;20028;-68
2024/02/13 00:35:06;;;;;;;19.75;6.97;;;6.00;94.70;;;;;;5050945;28;20029;-68
2024/02/13 00:37:32;;;;;;;14.07;5.78;;;5.90;94.70;;;;;;5049943;28;20154;-68
2024/02/13 00:39:58;;;;;;;10.95;4.60;;;5.90;94.70;;;;;;5050974;28;20025;-68
2024/02/13 00:42:26;;;;;;;12.25;4.60;;;5.90;94.70;;;;;;5050304;28;20017;-68
2024/02/13 00:44:51;;;;;;;8.32;4.07;;;5.90;94.70;;;;;;5049983;28;20033;-69
2024/02/13 00:47:17;;;;;;;7.57;4.20;;;5.90;94.80;;;;;;5048642;28;20029;-67
2024/02/13 00:49:43;;;;;;;3.88;2.55;;;5.90;94.80;;;;;;5050522;28;20028;-67
2024/02/13 00:52:09;;;;;;;6.03;3.45;;;5.90;94.80;;;;;;5050743;28;20033;-66
2024/02/13 00:54:35;;;;;;;5.70;3.05;;;5.90;94.80;;;;;;5049118;28;20087;-66
2024/02/13 00:57:01;;;;;;;4.20;2.70;;;5.90;94.80;;;;;;5048273;28;20109;-67
2024/02/13 00:59:27;;;;;;;5.78;2.80;;;5.90;94.80;;;;;;5050714;28;20052;-68
2024/02/13 01:01:52;;;;;;;5.72;3.13;;;5.90;94.80;;;;;;5049545;28;20021;-67
2024/02/13 01:04:18;;;;;;;5.22;3.20;;;5.80;94.80;;;;;;5049273;28;20426;-67
2024/02/13 01:06:44;;;;;;;8.48;4.85;;;5.80;94.90;;;;;;5049201;28;20029;-67
2024/02/13 01:09:10;;;;;;;6.35;4.30;;;5.80;95.00;;;;;;5050457;28;20076;-68
2024/02/13 01:11:35;;;;;;;5.78;3.70;;;5.80;95.00;;;;;;5048121;28;20029;-67
2024/02/13 01:14:02;;;;;;;7.30;4.07;;;5.80;95.00;;;;;;5049275;28;20023;-67
2024/02/13 01:16:28;;;;;;;7.57;4.10;;;5.80;94.90;;;;;;5049700;28;20099;-68
2024/02/13 01:18:57;;;;;;;10.05;5.30;;;5.80;95.00;;;;;;5048975;28;20135;-68
2024/02/13 01:21:23;;;;;;;10.60;4.93;;;5.70;95.00;;;;;;5048865;28;20491;-67
2024/02/13 01:23:49;;;;;;;10.60;5.68;;;5.70;95.00;;;;;;5048273;28;20036;-67
2024/02/13 01:26:18;;;;;;;9.13;5.32;;;5.60;95.10;;;;;;5048494;28;20017;-67
2024/02/13 01:28:44;;;;;;;11.88;6.20;;;5.60;95.20;;;;;;5049069;28;20028;-68
2024/02/13 01:31:10;;;;;;;13.35;6.25;;;5.60;95.20;;;;;;5050042;28;20029;-69
2024/02/13 01:33:36;;;;;;;8.90;5.60;;;5.50;95.30;;;;;;5048084;28;20021;-68
2024/02/13 01:36:04;;;;;;;8.82;5.40;;;5.50;95.40;;;;;;5048109;28;20056;-69
2024/02/13 01:38:30;;;;;;;10.70;6.22;;;5.50;95.50;;;;;;5043041;28;20017;-67
2024/02/13 01:40:56;;;;;;;15.20;8.55;;;5.50;95.60;;;;;;5049563;28;20104;-68
2024/02/13 01:43:25;;;;;;;10.02;6.30;;;5.40;95.70;;;;;;5046940;28;20147;-69
2024/02/13 01:45:56;;;;;;;8.48;5.30;;;5.40;95.80;;;;;;5048684;28;20406;-68
2024/02/13 01:48:25;;;;;;;12.20;7.63;;;5.40;95.80;;;;;;5048594;28;20021;-69
2024/02/13 01:50:51;;;;;;;13.75;7.90;;;5.40;95.90;;;;;;5045041;28;20029;-68
2024/02/13 01:53:18;;;;;;;11.45;6.25;;;5.40;96.00;;;;;;5049381;28;20556;-69
2024/02/13 01:55:45;;;;;;;11.65;7.28;;;5.40;96.10;;;;;;5048474;28;20096;-69
2024/02/13 01:58:12;;;;;;;12.70;7.10;;;5.40;96.10;;;;;;5047769;28;20025;-68
2024/02/13 02:00:38;;;;;;;10.32;6.72;;;5.40;96.10;;;;;;5048337;28;20043;-68
2024/02/13 02:03:04;;;;;;;11.27;7.88;;;5.40;96.10;;;;;;5049448;28;20446;-69
2024/02/13 02:05:31;;;;;;;14.27;7.07;;;5.40;96.20;;;;;;5047359;28;20028;-69
2024/02/13 02:07:58;;;;;;;11.52;7.07;;;5.40;96.20;;;;;;5045863;28;20024;-68
2024/02/13 02:10:23;;;;;;;11.25;7.05;;;5.30;96.20;;;;;;5048633;28;20025;-67
2024/02/13 02:12:50;;;;;;;9.73;6.28;;;5.30;96.30;;;;;;5048778;28;20021;-69
2024/02/13 02:15:16;;;;;;;11.75;7.07;;;5.40;96.30;;;;;;5047244;28;20079;-68
2024/02/13 02:17:52;;;;;;;10.30;6.65;;;5.40;96.30;;;;;;5048234;28;20033;-68
2024/02/13 02:20:25;;;;;;;11.77;7.53;;;5.40;96.30;;;;;;5046857;28;20028;-69
2024/02/13 02:22:51;;;;;;;9.50;6.30;;;5.40;96.30;;;;;;5046417;28;20717;-68
2024/02/13 02:25:21;;;;;;;11.30;7.35;;;5.40;96.30;;;;;;5047474;28;20020;-69
2024/02/13 02:27:47;;;;;;;11.63;7.78;;;5.40;96.40;;;;;;5046434;28;20033;-67
2024/02/13 02:30:13;;;;;;;13.20;8.32;;;5.40;96.40;;;;;;5048908;28;20017;-68
2024/02/13 02:32:39;;;;;;;12.95;8.45;;;5.40;96.40;;;;;;5048054;28;20025;-68
2024/02/13 02:35:06;;;;;;;11.43;7.90;;;5.30;96.40;;;;;;5048625;28;20054;-68
2024/02/13 02:37:34;;;;;;;11.80;7.57;;;5.30;96.40;;;;;;5047007;28;21519;-67
2024/02/13 02:40:00;;;;;;;12.85;8.57;;;5.40;96.50;;;;;;5047583;28;20112;-67
2024/02/13 02:42:26;;;;;;;12.50;7.88;;;5.30;96.50;;;;;;5048158;28;20108;-66
2024/02/13 02:44:53;;;;;;;12.70;7.72;;;5.30;96.50;;;;;;5045603;28;20021;-66
2024/02/13 02:47:19;;;;;;;13.85;9.23;;;5.30;96.50;;;;;;5047279;28;20021;-68
2024/02/13 02:49:45;;;;;;;12.98;8.60;;;5.30;96.50;;;;;;5048190;28;20396;-66
2024/02/13 02:52:11;;;;;;;15.60;9.52;;;5.30;96.60;;;;;;5049166;28;20024;-67
2024/02/13 02:54:36;;;;;;;11.98;7.97;;;5.30;96.60;;;;;;5047536;28;20549;-67
2024/02/13 02:57:06;;;;;;;11.38;7.60;;;5.30;96.60;;;;;;5049240;28;20115;-67
2024/02/13 02:59:32;;;;;;;13.15;8.80;;;5.30;96.70;;;;;;5048211;28;20041;-68
2024/02/13 03:01:58;;;;;;;12.70;8.55;;;5.30;96.60;;;;;;5045687;28;20021;-69
2024/02/13 03:04:25;;;;;;;15.95;10.07;;;5.30;96.70;;;;;;5047660;28;20089;-68
2024/02/13 03:06:51;;;;;;;13.93;9.50;;;5.20;96.70;;;;;;5047505;28;20718;-68
2024/02/13 03:09:16;;;;;;;14.00;9.13;;;5.20;96.70;;;;;;5046163;28;20512;-68
2024/02/13 03:11:42;;;;;;;18.42;11.77;;;5.20;96.80;;;;;;5047954;28;20028;-68
2024/02/13 03:14:11;;;;;;;16.40;9.10;;;5.20;96.80;;;;;;5045612;28;20053;-68
2024/02/13 03:16:37;;;;;;;20.75;11.30;;;5.20;96.90;;;;;;5047551;28;20021;-68
2024/02/13 03:19:05;;;;;;;17.52;11.68;;;5.20;97.00;;;;;;5047870;28;20123;-67
2024/02/13 03:21:35;;;;;;;17.77;11.05;;;5.20;97.10;;;;;;5045977;28;20048;-69
2024/02/13 03:24:01;;;;;;;17.83;10.13;;;5.20;97.20;;;;;;5046686;28;20021;-68
2024/02/13 03:26:26;;;;;;;15.52;10.10;;;5.20;97.20;;;;;;5047713;28;20035;-67
2024/02/13 03:28:52;;;;;;;12.68;8.80;;;5.20;97.30;;;;;;5042872;28;20025;-68
2024/02/13 03:31:18;;;;;;;14.45;8.85;;;5.20;97.30;;;;;;5048367;28;20021;-69
2024/02/13 03:33:44;;;;;;;17.15;10.02;;;5.20;97.30;;;;;;5047490;28;20028;-68
2024/02/13 03:36:11;;;;;;;15.82;10.55;;;5.20;97.30;;;;;;5048031;28;20017;-68
2024/02/13 03:38:36;;;;;;;13.32;9.20;;;5.20;97.30;;;;;;5048021;28;20021;-68
2024/02/13 03:41:02;;;;;;;15.20;9.20;;;5.20;97.40;;;;;;5047189;28;20888;-68
2024/02/13 03:43:28;;;;;;;13.27;8.50;;;5.20;97.40;;;;;;5048833;28;20383;-68
2024/02/13 03:45:54;;;;;;;13.35;8.70;;;5.20;97.40;;;;;;5047478;28;20490;-68
2024/02/13 03:48:19;;;;;;;12.07;7.72;;;5.20;97.40;;;;;;5046122;28;20025;-68
2024/02/13 03:50:45;;;;;;;11.77;8.27;;;5.20;97.70;;;;;;5047593;28;20033;-68
2024/02/13 03:53:13;;;;;;;14.40;9.65;;;5.20;97.40;;;;;;5047697;28;20415;-68
2024/02/13 03:55:39;;;;;;;13.55;9.30;;;5.20;97.30;;;;;;5047577;28;20102;-65
2024/02/13 03:58:04;;;;;;;16.60;10.20;;;5.20;97.40;;;;;;5049252;28;20029;-66
2024/02/13 04:00:32;;;;;;;15.80;10.68;;;5.20;97.40;;;;;;5048908;28;20035;-66
2024/02/13 04:02:58;;;;;;;17.17;11.20;;;5.20;97.50;;;;;;5049468;28;20570;-66
2024/02/13 04:05:24;;;;;;;16.05;10.27;;;5.10;97.50;;;;;;5052012;28;20044;-67
2024/02/13 04:07:50;;;;;;;14.07;8.95;;;5.10;97.60;;;;;;5052975;28;20104;-67
2024/02/13 04:10:16;;;;;;;14.57;9.52;;;5.10;97.60;;;;;;5052199;28;20220;-67
2024/02/13 04:12:42;;;;;;;17.27;10.27;;;5.10;97.70;;;;;;5050611;28;20025;-67
2024/02/13 04:15:09;;;;;;;17.15;10.77;;;5.10;97.70;;;;;;5051976;28;20017;-66
2024/02/13 04:17:34;;;;;;;18.17;11.10;;;5.00;97.70;;;;;;5046784;28;20041;-67
2024/02/13 04:20:01;;;;;;;15.63;10.07;;;5.00;97.80;;;;;;5050672;28;20075;-67
2024/02/13 04:22:27;;;;;;;13.35;9.93;;;5.00;97.90;;;;;;5050002;28;20017;-67
2024/02/13 04:24:52;;;;;;;15.98;9.20;;;5.00;97.90;;;;;;5050093;28;20021;-67
2024/02/13 04:27:19;;;;;;;12.88;8.65;;;5.00;98.00;;;;;;5049789;28;20051;-67
2024/02/13 04:29:44;;;;;;;13.25;9.27;;;5.10;98.00;;;;;;5050186;28;20013;-66
2024/02/13 04:32:10;;;;;;;12.40;7.97;;;5.00;98.00;;;;;;5049881;28;20419;-66
2024/02/13 04:34:36;;;;;;;10.98;7.72;;;5.00;98.00;;;;;;5051083;28;20491;-67
2024/02/13 04:37:02;;;;;;;12.30;8.05;;;5.10;98.00;;;;;;5043865;28;20049;-67
2024/02/13 04:39:27;;;;;;;14.73;10.65;;;5.10;97.90;;;;;;5050365;28;20076;-66
2024/02/13 04:41:53;;;;;;;17.70;10.75;;;5.00;97.90;;;;;;5050527;28;20428;-66
2024/02/13 04:44:20;;;;;;;14.88;8.55;;;5.00;98.00;;;;;;5050678;28;20487;-66
2024/02/13 04:46:45;;;;;;;15.50;10.05;;;5.00;98.00;;;;;;5049794;28;20036;-67
2024/02/13 04:49:11;;;;;;;20.73;9.80;;;5.00;98.10;;;;;;5050722;28;20025;-67
2024/02/13 04:51:37;;;;;;;19.48;10.75;;;4.90;98.10;;;;;;5050520;28;20100;-68
2024/02/13 04:54:04;;;;;;;15.25;9.60;;;5.00;98.20;;;;;;5047781;28;20112;-67
2024/02/13 04:56:30;;;;;;;15.85;9.68;;;4.90;98.20;;;;;;5048813;28;20480;-68
2024/02/13 04:58:56;;;;;;;16.00;9.02;;;4.90;98.20;;;;;;5049526;28;20159;-69
2024/02/13 05:01:25;;;;;;;12.38;8.35;;;4.90;98.20;;;;;;5050872;28;20071;-68
2024/02/13 05:09:04;;;;;;;12.23;7.25;;;4.90;98.20;;;;;;5050287;28;20175;-66
2024/02/13 05:11:30;;;;;;;11.68;7.47;;;4.90;98.30;;;;;;5047177;28;20497;-68
2024/02/13 05:13:56;;;;;;;13.75;9.30;;;4.90;98.30;;;;;;5049484;28;20353;-67
2024/02/13 05:16:24;;;;;;;14.15;8.55;;;4.90;98.30;;;;;;5049979;28;20094;-67
2024/02/13 05:18:51;;;;;;;12.77;8.10;;;4.90;98.30;;;;;;5049452;28;20452;-66
2024/02/13 05:21:19;;;;;;;12.57;7.88;;;4.90;98.40;;;;;;5048625;28;20715;-66
2024/02/13 05:23:47;;;;;;;11.35;8.35;;;4.90;98.40;;;;;;5049489;28;20036;-66
2024/02/13 05:26:13;;;;;;;12.85;8.25;;;4.90;98.40;;;;;;5047378;28;20029;-65
2024/02/13 05:28:39;;;;;;;11.23;7.85;;;4.90;98.40;;;;;;5048770;28;20467;-66
2024/02/13 05:31:05;;;;;;;9.48;6.90;;;4.90;98.40;;;;;;5045856;28;20029;-66
2024/02/13 05:33:32;;;;;;;11.57;7.95;;;4.90;98.40;;;;;;5049768;28;20032;-68
2024/02/13 05:35:57;;;;;;;16.88;9.90;;;4.90;98.40;;;;;;5048115;28;20028;-66
2024/02/13 05:38:23;;;;;;;11.93;8.05;;;4.90;98.40;;;;;;5049147;28;20017;-67
2024/02/13 05:40:49;;;;;;;13.77;8.20;;;4.90;98.40;;;;;;5048331;28;20695;-66
2024/02/13 05:43:15;;;;;;;12.63;8.80;;;4.90;98.40;;;;;;5042961;28;20031;-66
2024/02/13 05:45:40;;;;;;;15.77;8.80;;;4.90;98.30;;;;;;5046870;28;20431;-66
2024/02/13 05:48:11;;;;;;;13.43;8.68;;;4.90;98.30;;;;;;5045767;28;20406;-68
2024/02/13 05:50:37;;;;;;;14.83;10.03;;;4.90;98.40;;;;;;5051092;28;20028;-67
2024/02/13 05:53:03;;;;;;;18.13;10.80;;;4.90;98.40;;;;;;5048556;28;20745;-67
2024/02/13 05:55:29;;;;;;;17.75;9.82;;;4.90;98.50;;;;;;5048929;28;20052;-66
2024/02/13 05:57:54;;;;;;;12.50;8.35;;;4.90;98.50;;;;;;5047945;28;20064;-67
2024/02/13 06:00:24;;;;;;;12.65;8.02;;;4.90;98.50;;;;;;5047813;28;20031;-68
2024/02/13 06:02:54;;;;;;;14.80;8.60;;;4.90;98.50;;;;;;5050244;28;20466;-67
2024/02/13 06:05:23;;;;;;;11.57;6.95;;;4.80;98.50;;;;;;5046300;28;20029;-66
2024/02/13 06:07:50;;;;;;;11.88;7.95;;;4.90;98.60;;;;;;5045209;28;20029;-67
2024/02/13 06:10:16;;;;;;;11.18;7.10;;;4.90;98.50;;;;;;5049413;28;20107;-67
2024/02/13 06:12:42;;;;;;;15.05;9.57;;;4.80;98.50;;;;;;5048869;28;20090;-68
2024/02/13 06:15:09;;;;;;;12.20;8.52;;;4.80;98.50;;;;;;5048847;28;20013;-67
2024/02/13 06:17:35;;;;;;;13.15;8.32;;;4.80;98.60;;;;;;5048578;28;20035;-68
2024/02/13 06:20:05;;;;;;;12.23;6.82;;;4.80;98.60;;;;;;5047969;28;20029;-68
2024/02/13 06:22:34;;;;;;;13.30;6.72;;;4.80;98.60;;;;;;5048784;28;20476;-68
2024/02/13 06:25:00;;;;;;;17.08;8.80;;;4.80;98.50;;;;;;5046006;28;20661;-67
2024/02/13 06:27:26;;;;;;;11.25;7.85;;;4.80;98.50;;;;;;5048029;28;20066;-67
2024/02/13 06:29:51;;;;;;;15.35;9.43;;;4.80;98.60;;;;;;5041920;28;20060;-67
2024/02/13 06:32:17;;;;;;;23.58;11.90;;;4.80;98.60;;;;;;5049286;28;20020;-66
2024/02/13 06:34:43;;;;;;;17.27;8.35;;;4.70;98.70;;;;;;5048198;28;20659;-67
2024/02/13 06:37:10;;;;;;;13.95;8.32;;;4.70;98.80;;;;;;5048035;28;20541;-67
2024/02/13 06:39:35;;;;;;;13.27;7.63;;;4.70;98.80;;;;;;5048165;28;20017;-67
2024/02/13 06:42:01;;;;;;;12.07;7.30;;;4.80;98.80;;;;;;5047096;28;20030;-67
2024/02/13 06:44:27;;;;;;;16.23;8.50;;;4.80;98.80;;;;;;5046763;28;20013;-66
2024/02/13 06:46:52;;;;;;;14.02;8.90;;;4.80;98.80;;;;;;5046236;28;20491;-66
2024/02/13 06:49:18;;;;;;;13.65;8.25;;;4.80;98.90;;;;;;5048837;28;20036;-66
2024/02/13 06:51:44;;;;;;;12.63;7.60;;;4.80;99.00;;;;;;5050559;28;20181;-68
2024/02/13 06:54:09;;;;;;;13.68;7.95;;;4.80;99.00;;;;;;5048669;28;20094;-67
2024/02/13 06:56:38;;;;;;;14.98;8.65;;;4.80;99.00;;;;;;5047104;28;20028;-67
2024/02/13 06:59:03;;;;;;;14.20;8.55;;;4.80;99.00;;;;;;5046496;28;20041;-67
2024/02/13 07:01:29;;;;;;;15.18;9.05;;;4.80;99.10;;;;;;5048207;28;20029;-67
2024/02/13 07:03:55;;;;;;;11.68;7.35;;;4.80;99.10;;;;;;5047367;28;20021;-67
2024/02/13 07:06:21;;;;;;;11.27;7.82;;;4.80;99.10;;;;;;5047420;28;20021;-66
2024/02/13 07:08:46;;;;;;;12.93;7.47;;;4.80;99.10;;;;;;5045891;28;20037;-67
2024/02/13 07:11:12;;;;;;;11.85;7.68;;;4.90;99.20;;;;;;5046473;28;20052;-66
2024/02/13 07:13:37;;;;;;;13.13;7.97;;;4.90;99.20;;;;;;5048878;28;20548;-67
2024/02/13 07:16:07;;;;;;;12.05;6.47;;;4.90;99.20;;;;;;5046167;28;20079;-68
2024/02/13 07:18:35;;;;;;;12.15;6.90;;;4.90;99.20;;;;;;5045945;28;20025;-67
2024/02/13 07:21:01;;;;;;;11.07;6.15;;;4.90;99.20;;;;;;5050551;28;20036;-66
2024/02/13 07:23:27;;;;;;;11.93;7.43;;;4.90;99.20;;;;;;5044923;28;20017;-68
2024/02/13 07:25:52;;;;;;;11.98;7.18;;;5.00;99.20;;;;;;5041621;28;20641;-68
2024/02/13 07:28:18;;;;;;;14.30;6.55;;;4.90;99.30;;;;;;5046669;28;20043;-67
2024/02/13 07:30:43;;;;;;;10.75;6.43;;;5.00;99.60;;;;;;5044769;28;20104;-66
2024/02/13 07:33:09;;;;;;;14.60;6.85;;;5.00;99.30;;;;;;5047409;28;20032;-66
2024/02/13 07:35:35;;;;;;;9.65;5.97;;;5.00;99.20;;;;;;5052071;28;20021;-66
2024/02/13 07:38:03;;;;;;;8.05;5.05;;;5.00;99.20;;;;;;5049999;28;20483;-67
2024/02/13 07:40:30;;;;;;;13.68;7.25;;;5.10;99.20;;;;;;5050747;28;20508;-67
2024/02/13 07:42:56;;;;;;;9.60;5.10;;;5.10;99.20;;;;;;5051396;28;20033;-66
2024/02/13 07:45:21;;;;;;;8.88;5.43;;;5.10;99.20;;;;;;5051634;28;20021;-66
2024/02/13 07:47:47;;;;;;;9.93;5.15;;;5.10;99.10;;;;;;5050024;28;20033;-67
2024/02/13 07:50:14;;;;;;;7.40;5.22;;;5.20;99.20;;;;;;5048606;28;20104;-67
2024/02/13 07:52:40;;;;;;;11.13;4.25;;;5.20;99.10;;;;;;5050259;28;20101;-67
2024/02/13 07:55:06;;;;;;;8.32;4.88;;;5.30;99.20;;;;;;5051847;28;20064;-67
2024/02/13 07:57:34;;;;;;;9.85;5.38;;;5.30;99.00;;;;;;5044209;28;20599;-68
2024/02/13 07:59:59;;;;;;;11.50;6.68;;;5.30;98.90;;;;;;5043319;28;20017;-68
2024/02/13 08:02:25;;;;;;;10.20;5.78;;;5.30;98.90;;;;;;5048631;28;20036;-68
2024/02/13 08:04:51;;;;;;;10.40;5.57;;;5.30;98.90;;;;;;5049899;28;20052;-67
2024/02/13 08:07:17;;;;;;;9.93;4.95;;;5.30;98.90;;;;;;5049594;28;20866;-67
2024/02/13 08:09:43;;;;;;;9.55;4.38;;;5.30;98.90;;;;;;5050535;28;20028;-68
2024/02/13 08:12:09;;;;;;;9.00;4.70;;;5.40;98.90;;;;;;5047519;28;20029;-68
2024/02/13 08:14:36;;;;;;;10.35;4.20;;;5.40;98.90;;;;;;5049287;28;20541;-67
2024/02/13 08:17:06;;;;;;;8.43;5.25;;;5.40;98.90;;;;;;5047832;28;20035;-68
2024/02/13 08:19:33;;;;;;;12.23;5.35;;;5.40;98.90;;;;;;5051670;28;20105;-68
2024/02/13 08:22:00;;;;;;;8.05;4.47;;;5.40;98.90;;;;;;5049444;28;20706;-67
2024/02/13 08:24:26;;;;;;;6.10;3.70;;;5.50;98.90;;;;;;5048958;28;20029;-67
2024/02/13 08:26:52;;;;;;;5.07;2.97;;;5.50;98.90;;;;;;5048965;28;20111;-68
2024/02/13 08:29:19;;;;;;;5.63;3.75;;;5.60;98.90;;;;;;5050318;28;20029;-68
2024/02/13 08:31:45;;;;;;;9.18;4.88;;;5.70;98.70;;;;;;5047347;28;20075;-68
2024/02/13 08:34:11;;;;;;;6.45;3.60;;;5.60;98.80;;;;;;5039546;28;20052;-67
2024/02/13 08:36:38;;;;;;;7.30;4.10;;;5.70;98.80;;;;;;5040641;28;20146;-67
2024/02/13 08:39:04;;;;;;;8.30;4.43;;;5.70;98.70;;;;;;5046025;28;20029;-67
2024/02/13 08:41:31;;;;;;;8.02;3.55;;;5.80;98.60;;;;;;5053293;28;20104;-67
2024/02/13 08:43:58;;;;;;;10.82;3.95;;;5.80;98.60;;;;;;5047143;28;20530;-69
2024/02/13 08:46:24;;;;;;;5.25;3.15;;;5.90;98.50;;;;;;5048777;28;20029;-69
2024/02/13 08:48:50;;;;;;;4.80;3.60;;;6.00;98.40;;;;;;5048989;28;20018;-68
2024/02/13 08:51:18;;;;;;;8.00;3.75;;;6.10;98.30;;;;;;5048797;28;20078;-68
2024/02/13 08:53:44;;;;;;;5.93;3.17;;;6.10;98.20;;;;;;5043071;28;20032;-68
2024/02/13 08:56:10;;;;;;;5.07;3.15;;;6.20;98.20;;;;;;5047050;28;20035;-68
2024/02/13 08:58:35;;;;;;;6.80;3.47;;;6.30;98.10;;;;;;5050134;28;20021;-68
2024/02/13 09:01:01;;;;;;;6.28;3.50;;;6.30;97.90;;;;;;5046915;28;20029;-67
2024/02/13 09:03:26;;;;;;;5.07;3.15;;;6.30;97.90;;;;;;5049166;28;20075;-68
2024/02/13 09:05:52;;;;;;;7.35;3.85;;;6.30;97.80;;;;;;5047141;28;20063;-68
2024/02/13 09:08:18;;;;;;;7.63;3.90;;;6.30;97.70;;;;;;5052782;28;20113;-68
2024/02/13 09:10:44;;;;;;;6.32;3.33;;;6.30;97.70;;;;;;5052552;28;20017;-67
2024/02/13 09:13:09;;;;;;;4.65;2.55;;;6.30;97.80;;;;;;5045233;28;20021;-68
2024/02/13 09:15:36;;;;;;;4.97;2.30;;;6.30;97.80;;;;;;5051365;28;20096;-68
2024/02/13 09:18:02;;;;;;;6.97;3.33;;;6.40;97.90;;;;;;5048031;28;20395;-68
2024/02/13 09:20:27;;;;;;;4.13;2.45;;;6.50;97.80;;;;;;5048552;28;20032;-68
2024/02/13 09:22:55;;;;;;;5.90;3.05;;;6.50;97.80;;;;;;5048991;28;20029;-69
2024/02/13 09:25:20;;;;;;;7.05;3.10;;;6.60;97.70;;;;;;5048485;28;20078;-67
2024/02/13 09:27:51;;;;;;;6.00;3.05;;;6.70;97.70;;;;;;5048818;28;20336;-68
2024/02/13 09:30:17;;;;;;;4.33;2.90;;;6.70;97.50;;;;;;5047052;28;20490;-68
2024/02/13 09:32:44;;;;;;;6.20;3.10;;;6.80;97.40;;;;;;5045327;28;20395;-68
2024/02/13 09:35:10;;;;;;;5.78;3.10;;;6.80;97.40;;;;;;5047581;28;20105;-68
2024/02/13 09:37:39;;;;;;;5.20;2.83;;;6.90;97.30;;;;;;5048225;28;21418;-67
2024/02/13 09:40:14;;;;;;;6.03;2.47;;;7.00;97.20;;;;;;5048647;28;20021;-67
2024/02/13 09:42:46;;;;;;;7.45;3.33;;;7.00;97.10;;;;;;5048438;28;20503;-66
2024/02/13 09:45:13;;;;;;;5.75;2.50;;;7.10;97.10;;;;;;5048527;28;20075;-68
2024/02/13 09:47:40;;;;;;;4.40;2.30;;;7.20;97.10;;;;;;5045888;28;20135;-68
2024/02/13 09:50:11;;;;;;;4.10;2.55;;;7.20;97.00;;;;;;5047526;28;20455;-67
2024/02/13 09:52:41;;;;;;;5.53;2.75;;;7.30;96.90;;;;;;5045343;28;20025;-69
2024/02/13 09:55:10;;;;;;;4.18;2.20;;;7.30;96.70;;;;;;5046646;28;20025;-69
2024/02/13 09:57:38;;;;;;;7.35;2.53;;;7.40;96.70;;;;;;5038397;28;20086;-67
2024/02/13 10:00:08;;;;;;;4.35;2.20;;;7.40;96.70;;;;;;5040964;28;20028;-67
2024/02/13 10:02:39;;;;;;;4.95;2.28;;;7.40;96.60;;;;;;5041387;28;20112;-67
2024/02/13 10:05:09;;;;;;;4.53;2.13;;;7.50;96.50;;;;;;5047092;28;20032;-69
2024/02/13 10:07:37;;;;;;;7.93;3.03;;;7.50;96.50;;;;;;5044369;28;20113;-68
2024/02/13 10:10:04;;;;;;;4.40;2.65;;;7.60;96.40;;;;;;5044712;28;20024;-68
2024/02/13 10:12:30;;;;;;;5.40;3.13;;;7.60;96.20;;;;;;5047737;28;20039;-66
2024/02/13 10:14:58;;;;;;;6.13;2.65;;;7.70;96.00;;;;;;5045727;28;24061;-68
2024/02/13 10:17:23;;;;;;;5.80;2.58;;;7.70;95.90;;;;;;5050863;28;20039;-68
2024/02/13 10:19:49;;;;;;;4.93;2.28;;;7.70;95.90;;;;;;5050204;28;20033;-66
2024/02/13 10:22:16;;;;;;;6.57;2.85;;;7.80;95.90;;;;;;5049668;28;20025;-67
2024/02/13 10:24:47;;;;;;;4.90;2.35;;;7.80;95.70;;;;;;5046209;28;20032;-68
2024/02/13 10:27:14;;;;;;;4.68;2.22;;;7.90;95.70;;;;;;5046423;28;20025;-70
2024/02/13 10:29:45;;;;;;;4.43;2.45;;;7.90;95.70;;;;;;5043765;28;20538;-69
2024/02/13 10:32:11;;;;;;;4.78;2.20;;;8.10;95.70;;;;;;5047268;28;20025;-69
2024/02/13 10:34:37;;;;;;;5.43;2.38;;;8.20;95.60;;;;;;5047098;28;20021;-69
2024/02/13 10:37:07;;;;;;;4.38;2.40;;;8.30;95.40;;;;;;5045838;28;20423;-67
2024/02/13 10:39:35;;;;;;;7.45;3.15;;;8.30;95.20;;;;;;5046756;28;20031;-69
2024/02/13 10:42:08;;;;;;;4.93;2.70;;;8.40;94.90;;;;;;5043513;28;20036;-68
2024/02/13 10:44:41;;;;;;;5.40;2.15;;;8.40;94.70;;;;;;5042932;28;20090;-68
2024/02/13 10:47:10;;;;;;;3.72;1.85;;;8.60;94.80;;;;;;5044277;28;20033;-69
2024/02/13 10:49:49;;;;;;;4.25;2.55;;;8.60;94.60;;;;;;5034243;28;20021;-68
2024/02/13 10:52:16;;;;;;;4.97;2.10;;;8.70;94.50;;;;;;5045861;28;20723;-68
2024/02/13 10:54:46;;;;;;;3.83;2.10;;;8.80;94.40;;;;;;5046913;28;20025;-68
2024/02/13 10:57:16;;;;;;;6.57;2.83;;;8.80;94.30;;;;;;5046370;28;20479;-68
2024/02/13 10:59:46;;;;;;;7.65;3.55;;;8.80;94.00;;;;;;5050269;28;20127;-69
2024/02/13 11:02:17;;;;;;;5.00;2.50;;;8.80;93.90;;;;;;5046060;28;20057;-70
2024/02/13 11:04:43;;;;;;;5.07;2.33;;;8.80;93.80;;;;;;5051036;28;20021;-69
2024/02/13 11:07:17;;;;;;;5.63;2.30;;;8.90;93.70;;;;;;5048459;28;20565;-68
2024/02/13 11:09:43;;;;;;;6.53;2.08;;;8.90;93.70;;;;;;5050912;28;20025;-68
2024/02/13 11:12:09;;;;;;;4.85;2.20;;;9.00;93.60;;;;;;5052008;28;20013;-69
2024/02/13 11:14:35;;;;;;;6.07;2.60;;;9.00;93.60;;;;;;5050014;28;20104;-69
2024/02/13 11:17:03;;;;;;;5.38;2.40;;;9.10;93.40;;;;;;5051665;28;20108;-68
2024/02/13 11:19:48;;;;;;;5.60;2.45;;;9.10;93.30;;;;;;5052897;28;20032;-69
2024/02/13 11:22:15;;;;;;;5.10;2.30;;;9.20;93.00;;;;;;5050929;28;20107;-68
2024/02/13 11:24:53;;;;;;;6.00;2.63;;;9.30;93.00;;;;;;5051375;28;20112;-68
2024/02/13 11:27:28;;;;;;;6.57;2.95;;;9.40;92.90;;;;;;5049423;28;20138;-69
2024/02/13 11:30:02;;;;;;;5.25;2.63;;;9.50;92.30;;;;;;5051898;28;20135;-68
2024/02/13 11:32:33;;;;;;;5.05;2.35;;;9.50;92.10;;;;;;5050946;28;20021;-68
2024/02/13 11:34:59;;;;;;;3.42;2.00;;;9.60;92.00;;;;;;5052477;28;20021;-68
2024/02/13 11:37:28;;;;;;;2.45;1.48;;;9.80;92.00;;;;;;5051061;28;20035;-68
2024/02/13 11:39:58;;;;;;;4.28;2.13;;;9.90;92.00;;;;;;5052874;28;20036;-67
2024/02/13 11:42:30;;;;;;;4.85;2.53;;;9.90;91.60;;;;;;5049058;28;20096;-69
2024/02/13 11:44:56;;;;;;;3.95;1.90;;;10.00;91.50;;;;;;5048996;28;20032;-69
2024/02/13 11:47:24;;;;;;;2.50;1.70;;;10.00;91.30;;;;;;5054800;28;20566;-68
2024/02/13 11:49:51;;;;;;;3.75;2.10;;;10.10;91.40;;;;;;5051031;28;20125;-68
2024/02/13 11:52:17;;;;;;;6.18;2.70;;;10.20;91.30;;;;;;5050318;28;20017;-67
2024/02/13 11:54:48;;;;;;;3.25;2.10;;;10.20;90.80;;;;;;5051552;28;20452;-69
2024/02/13 11:57:14;;;;;;;6.27;3.03;;;10.20;90.80;;;;;;5051532;28;20025;-69
2024/02/13 11:59:40;;;;;;;6.80;2.55;;;10.20;90.40;;;;;;5050062;28;20279;-68
2024/02/13 12:02:15;;;;;;;7.07;2.70;;;10.30;90.20;;;;;;5051423;28;20025;-68
2024/02/13 12:04:41;;;;;;;4.22;2.20;;;10.30;90.00;;;;;;5049325;28;20040;-68
2024/02/13 12:07:07;;;;;;;3.80;2.28;;;10.30;89.70;;;;;;5050862;28;20036;-69
2024/02/13 12:09:36;;;;;;;2.42;1.70;;;10.40;89.90;;;;;;5052719;28;20029;-69
2024/02/13 12:12:04;;;;;;;3.15;2.03;;;10.60;89.80;;;;;;5053401;28;20035;-68
2024/02/13 12:14:30;;;;;;;3.72;1.80;;;11.20;88.60;;;;;;5049471;28;20103;-69
2024/02/13 12:17:10;;;;;;;3.10;1.63;;;11.90;86.00;;;;;;5049258;28;20020;-68
2024/02/13 12:19:37;;;;;;;3.08;1.60;;;12.00;84.00;;;;;;5050841;28;20020;-67
2024/02/13 12:22:08;;;;;;;6.55;2.85;;;12.00;83.70;;;;;;5050538;28;20036;-68
2024/02/13 12:24:46;;;;;;;5.22;2.38;;;11.90;82.50;;;;;;5054357;28;20047;-68
2024/02/13 12:27:15;;;;;;;6.00;2.20;;;12.30;82.50;;;;;;5046817;28;20041;-68
2024/02/13 12:29:41;;;;;;;3.42;2.00;;;11.80;81.50;;;;;;5050258;28;20025;-68
2024/02/13 12:32:16;;;;;;;5.20;2.20;;;11.50;83.20;;;;;;5049336;28;21256;-69
2024/02/13 12:34:47;;;;;;;2.67;1.55;;;11.30;84.10;;;;;;5049358;28;20033;-70
2024/02/13 12:37:24;;;;;;;4.35;1.75;;;11.20;85.20;;;;;;5047278;28;20021;-68
2024/02/13 12:39:50;;;;;;;5.93;2.17;;;11.00;85.10;;;;;;5056392;28;20448;-68
2024/02/13 12:42:17;;;;;;;2.40;1.70;;;10.90;85.30;;;;;;5050657;28;20025;-69
2024/02/13 12:44:44;;;;;;;4.88;1.98;;;10.90;85.40;;;;;;5048399;28;20471;-69
2024/02/13 12:47:13;;;;;;;4.30;1.80;;;10.80;85.30;;;;;;5049335;28;20025;-68
2024/02/13 12:49:42;;;;;;;1.92;1.25;;;10.80;85.80;;;;;;5052058;28;20032;-69
2024/02/13 12:52:11;;;;;;;3.15;1.70;;;11.00;86.30;;;;;;5054889;28;20043;-68
2024/02/13 12:54:37;;;;;;;3.85;1.55;;;11.10;86.20;;;;;;5050844;28;20071;-69